Latest Coastal Weather Observations for Eucla

IDS60701

Issued at 3:15 am CDT Sunday 26 October 2014 (issued every 10 minutes, with the page automatically refreshed every 10 minutes)

About coastal observations | Map of coastal stations | Coastal observations for SA | Marine services | Other Formats
Station Details ID: 011003 Name: EUCLA Lat: -31.68 Lon: 128.90 Height: 93.1 m
Data from the previous 72 hours. | See also: Recent months at Eucla
Date/Time
CDT
Temp

°C
Wind Pressure Rain
since 9am
mm
Weather Cloud Vis
km
Sea
Height
m
Swell
Dir
 
Speed
knots
Gust
knots
hPa Trend Height
m
Period
s
Dir
26/03:00am 23.3 NW 8 12 1007.9 - 0.0 - - - - - - -
26/02:30am 25.7 NW 9 12 1007.6 - 0.0 - - - - - - -
26/02:00am 23.8 N 8 9 1007.8 - 0.0 - - - - - - -
26/01:30am 21.9 N 8 10 1007.8 - 0.0 - - - - - - -
26/01:00am 18.9 WSW 2 5 1008.2 - 0.0 - - - - - - -
26/12:30am 19.7 SW 3 4 1008.5 - 0.0 - - - - - - -
26/12:00am 21.1 W 5 9 1008.8 - 0.0 - - - - - - -
 
Date/Time
CDT
Temp

°C
Wind Pressure Rain
since 9am
mm
Weather Cloud Vis
km
Sea
Height
m
Swell
Dir
 
Speed
knots
Gust
knots
hPa Trend Height
m
Period
s
Dir
25/11:30pm 25.5 N 9 15 1008.0 - 0.0 - - - - - - -
25/11:00pm 24.7 NNE 10 14 1008.2 - 0.0 - - - - - - -
25/10:30pm 23.5 NNE 10 15 1008.7 - 0.0 - - - - - - -
25/10:00pm 21.9 NNE 11 17 1008.6 - 0.0 - - - - - - -
25/09:30pm 21.1 ENE 11 16 1008.5 - 0.0 - - - - - - -
25/09:00pm 20.4 ENE 10 16 1008.6 - 0.0 - - - - - - -
25/08:30pm 20.8 E 13 19 1008.5 - 0.0 - - - - - - -
25/08:00pm 21.3 ENE 14 19 1008.5 - 0.0 - - - - - - -
25/07:30pm 21.9 E 15 21 1008.8 - 0.0 - - - - - - -
25/07:00pm 22.7 E 14 22 1009.0 - 0.0 - - - - - - -
25/06:30pm 22.1 E 12 19 1009.3 - 0.0 - - - - - - -
25/06:00pm 21.6 E 12 18 1009.7 - 0.0 - - - - - - -
25/05:30pm 20.8 ESE 12 18 1010.2 - 0.0 Haze Partly cloudy 25 - - - -
25/05:00pm 20.9 ESE 12 18 1010.7 - 0.0 - - - - - - -
25/04:30pm 20.0 ESE 11 17 1011.2 - 0.0 - - - - - - -
25/04:00pm 21.6 ESE 11 17 1011.2 - 0.0 - - - - - - -
25/03:30pm 22.1 E 11 16 1011.9 - 0.0 - - - - - - -
25/03:00pm 20.7 ESE 11 17 1012.7 - 0.0 - - - - - - -
25/02:30pm 22.4 ESE 12 19 1013.2 - 0.0 - - - - - - -
25/02:00pm 21.9 ESE 11 16 1013.6 - 0.0 - - - - - - -
25/01:30pm 22.6 ESE 11 16 1014.2 - 0.0 - - - - - - -
25/01:00pm 22.6 ESE 9 14 1015.1 - 0.0 - - - - - - -
25/12:30pm 22.3 SE 10 14 1015.6 - 0.0 - - - - - - -
25/12:00pm 21.3 SE 9 14 1016.0 - 0.0 - - - - - - -
25/11:30am 21.2 ESE 8 13 1016.4 - 0.0 Fine Mostly clear 40 - - - -
25/11:00am 19.9 SE 9 13 1016.6 - 0.0 - - - - - - -
25/10:30am 22.1 ENE 6 10 1017.1 - 0.0 - - - - - - -
25/10:00am 20.3 NE 7 10 1017.1 - 0.0 - - - - - - -
25/09:30am 19.1 ENE 8 12 1017.6 - 0.0 - - - - - - -
25/09:00am 18.2 ENE 8 12 1017.8 - 0.0 - - - - - - -
25/08:30am 16.6 ENE 9 14 1018.0 - 0.0 - - - - - - -
25/08:00am 16.3 E 7 9 1017.8 - 0.0 - - - - - - -
25/07:30am 16.1 E 7 10 1017.2 - 0.0 - - - - - - -
25/07:00am 16.1 E 7 11 1017.0 - 0.0 - - - - - - -
25/06:30am 15.9 ENE 7 9 1016.9 - 0.0 - - - - - - -
25/06:00am 16.0 E 6 9 1016.9 - 0.0 - - - - - - -
25/05:30am 16.0 E 6 9 1016.9 - 0.0 - - - - - - -
25/05:00am 16.0 E 7 10 1017.4 - 0.0 - - - - - - -
25/04:30am 16.0 E 8 10 1017.2 - 0.0 - - - - - - -
25/04:00am 15.8 ESE 7 11 1017.0 - 0.0 - - - - - - -
25/03:30am 15.9 ESE 5 7 1017.4 - 0.0 - - - - - - -
25/03:00am 15.9 SE 5 8 1017.3 - 0.0 - - - - - - -
25/02:30am 16.0 SE 7 10 1017.6 - 0.0 - - - - - - -
25/02:00am 15.9 ESE 7 11 1017.9 - 0.0 - - - - - - -
25/01:30am 16.2 ESE 6 8 1018.5 - 0.0 - - - - - - -
25/01:00am 16.4 SSE 7 9 1019.1 - 0.0 - - - - - - -
25/12:30am 16.4 SE 7 10 1019.1 - 0.0 - - - - - - -
25/12:00am 16.7 SSE 7 10 1019.0 - 0.0 - - - - - - -
 
Date/Time
CDT
Temp

°C
Wind Pressure Rain
since 9am
mm
Weather Cloud Vis
km
Sea
Height
m
Swell
Dir
 
Speed
knots
Gust
knots
hPa Trend Height
m
Period
s
Dir
24/11:30pm 16.9 SE 8 11 1019.0 - 0.0 - - - - - - -
24/11:00pm 16.8 SSE 8 12 1018.8 - 0.0 - - - - - - -
24/10:30pm 16.9 SE 7 10 1018.4 - 0.0 - - - - - - -
24/10:00pm 17.0 SSE 7 10 1018.3 - 0.0 - - - - - - -
24/09:30pm 17.2 SSE 9 12 1018.0 - 0.0 - - - - - - -
24/09:00pm 17.3 S 8 12 1017.9 - 0.0 - - - - - - -
24/08:30pm 17.2 S 9 13 1017.6 - 0.0 - - - - - - -
24/08:00pm 17.5 S 9 12 1017.5 - 0.0 - - - - - - -
24/07:30pm 17.8 S 10 14 1017.3 - 0.0 - - - - - - -
24/07:00pm 18.2 S 9 13 1017.1 - 0.0 - - - - - - -
24/06:30pm 19.2 S 10 15 1017.0 - 0.0 - - - - - - -
24/06:00pm 19.6 S 11 15 1016.8 - 0.0 - - - - - - -
24/05:30pm 20.3 S 9 15 1016.9 - 0.0 Haze Mostly clear 25 - - - -
24/05:00pm 21.3 S 11 15 1016.9 - 0.0 - - - - - - -
24/04:30pm 21.4 S 10 15 1017.0 - 0.0 - - - - - - -
24/04:00pm 21.3 S 11 16 1017.0 - 0.0 - - - - - - -
24/03:30pm 22.1 S 10 14 1016.9 - 0.0 - - - - - - -
24/03:00pm 22.1 S 11 16 1016.8 - 0.0 - - - - - - -
24/02:30pm 22.5 S 10 16 1017.0 - 0.0 - - - - - - -
24/02:00pm 22.8 S 10 16 1017.1 - 0.0 - - - - - - -
24/01:30pm 22.9 S 11 17 1017.2 - 0.0 - - - - - - -
24/01:00pm 23.3 S 10 15 1017.4 - 0.0 - - - - - - -
24/12:30pm 22.9 S 10 15 1017.6 - 0.0 - - - - - - -
24/12:00pm 23.8 S 11 16 1017.6 - 0.0 - - - - - - -
24/11:30am 23.6 S 11 15 1017.6 - 0.0 Fine Mostly clear 40 - - - -
24/11:00am 23.9 S 10 14 1017.7 - 0.0 - - - - - - -
24/10:30am 23.1 S 9 14 1017.2 - 0.0 - - - - - - -
24/10:00am 22.6 S 7 10 1017.0 - 0.0 - - - - - - -
24/09:30am 21.4 S 6 9 1016.6 - 0.0 - - - - - - -
24/09:00am 19.9 SW 4 6 1016.7 - 0.0 - - - - - - -
24/08:30am 17.9 SW 5 6 1016.1 - 0.0 - - - - - - -
24/08:00am 16.5 WSW 5 7 1015.9 - 0.0 - - - - - - -
24/07:30am 15.6 S 4 5 1015.6 - 0.0 - - - - - - -
24/07:00am 15.9 S 4 6 1014.8 - 0.0 - - - - - - -
24/06:30am 15.9 S 5 7 1014.2 - 0.0 - - - - - - -
24/06:00am 15.8 S 6 7 1013.9 - 0.0 - - - - - - -
24/05:30am 16.0 S 6 8 1013.9 - 0.0 - - - - - - -
24/05:00am 15.8 S 7 9 1013.5 - 0.0 - - - - - - -
24/04:30am 16.3 SSW 7 9 1013.8 - 0.0 - - - - - - -
24/04:00am 16.6 SSW 7 10 1013.7 - 0.0 - - - - - - -
24/03:30am 16.8 SW 7 9 1013.7 - 0.0 - - - - - - -
24/03:00am 16.4 SW 8 11 1013.6 - 0.0 - - - - - - -
24/02:30am 16.5 SW 9 13 1013.6 - 0.0 - - - - - - -
24/02:00am 17.3 SSW 8 9 1013.4 - 0.0 - - - - - - -
24/01:30am 17.8 SSW 9 13 1013.4 - 0.0 - - - - - - -
24/01:00am 19.3 WSW 10 14 1013.1 - 0.0 - - - - - - -
24/12:30am 21.9 WSW 8 14 1012.8 - 0.0 - - - - - - -
24/12:00am 22.7 WSW 6 10 1012.4 - 0.0 - - - - - - -
 
Date/Time
CDT
Temp

°C
Wind Pressure Rain
since 9am
mm
Weather Cloud Vis
km
Sea
Height
m
Swell
Dir
 
Speed
knots
Gust
knots
hPa Trend Height
m
Period
s
Dir
23/11:30pm 23.5 N 9 11 1011.1 - 0.0 - - - - - - -
23/11:00pm 23.7 N 9 10 1011.1 - 0.0 - - - - - - -
23/10:30pm 25.6 N 9 11 1011.1 - 0.0 - - - - - - -
23/10:00pm 26.4 N 9 14 1010.7 - 0.0 - - - - - - -
23/09:30pm 26.9 N 8 12 1010.4 - 0.0 - - - - - - -
23/09:00pm 27.7 N 9 14 1010.1 - 0.0 - - - - - - -
23/08:30pm 27.9 N 7 9 1009.9 - 0.0 - - - - - - -
23/08:00pm 29.0 N 7 9 1009.7 - 0.0 - - - - - - -
23/07:30pm 30.1 NNE 7 13 1009.7 - 0.0 - - - - - - -
23/07:00pm 30.8 NNE 8 13 1009.9 - 0.0 - - - - - - -
23/06:30pm 28.2 NE 7 9 1010.0 - 0.0 - - - - - - -
23/06:00pm 27.3 ENE 5 8 1010.2 - 0.0 - - - - - - -
23/05:30pm 25.5 ESE 4 6 1010.1 - 0.0 Fine Mostly cloudy 40 - - - -
23/05:00pm 25.1 S 5 8 1010.6 - 0.0 - - - - - - -
23/04:30pm 24.3 WSW 7 12 1011.2 - 0.0 - - - - - - -
23/04:00pm 26.0 NW 6 9 1011.6 - 0.0 - - - - - - -
23/03:30pm 21.9 SSW 6 10 1011.8 - 0.0 - - - - - - -
23/03:00pm 25.3 N 6 9 1012.0 - 0.0 - - - - - - -
23/02:52pm 24.7 N 7 10 1012.4 - 0.0 - - - - - - -
23/02:30pm 19.7 SSW 5 9 1013.9 - 0.0 - - - - - - -
23/02:00pm 21.1 E 5 7 1013.5 - 0.0 - - - - - - -
23/01:30pm 21.4 SE 5 7 1014.8 - 0.0 - - - - - - -
23/01:00pm 21.7 NNW 4 7 1014.9 - 0.0 - - - - - - -
23/12:30pm 19.7 WSW 5 8 1015.8 - 0.0 - - - - - - -
23/12:00pm 18.3 NNE 14 21 1014.6 - 0.0 - - - - - - -
23/11:30am 16.8 NNE 13 19 1015.9 - 0.0 Fine Cloudy 40 - - - -
23/11:00am 16.5 NNE 13 18 1015.9 - 0.0 - - - - - - -
23/10:30am 16.2 N 12 16 1016.7 - 0.0 - - - - - - -
23/10:00am 15.8 NNE 10 17 1016.7 - 0.0 - - - - - - -
23/09:30am 15.0 NE 6 8 1016.6 - 0.0 - - - - - - -
23/09:00am 14.8 NNE 8 11 1017.0 - 0.0 - - - - - - -
23/08:30am 14.4 NE 6 10 1016.5 - 0.0 - - - - - - -
23/08:00am 14.0 NE 7 11 1016.2 - 0.0 - - - - - - -
23/07:30am 14.0 ENE 7 11 1015.9 - 0.0 - - - - - - -
23/07:00am 14.1 NE 9 14 1015.8 - 0.0 - - - - - - -
23/06:30am 14.2 ENE 9 15 1015.8 - 0.0 - - - - - - -
23/06:00am 14.4 ENE 8 12 1016.5 - 0.0 - - - - - - -

Other Formats:

Comma delimited format used in spreadsheet applications
http://www.bom.gov.au/fwo/IDS60701/IDS60701.94647.axf

JavaScript Object Notation format (JSON) in row-major order
http://www.bom.gov.au/fwo/IDS60701/IDS60701.94647.json